createdAt,value
2019-01-03T00:01:55.535Z,102318.62
2019-01-03T00:04:43.387Z,102314.22
2019-01-03T00:07:32.445Z,102313.77
2019-01-03T00:10:20.650Z,102308.05
2019-01-03T00:13:08.684Z,102316.84
2019-01-03T00:15:56.526Z,102330.52
2019-01-03T00:18:49.919Z,102324.79
2019-01-03T00:21:39.545Z,102347.25
2019-01-03T00:24:28.616Z,102349.00
2019-01-03T00:27:16.811Z,102350.32
2019-01-03T00:30:08.655Z,102343.72
2019-01-03T00:32:57.741Z,102346.35
2019-01-03T00:35:58.277Z,102357.38
2019-01-03T00:38:55.329Z,102372.78
2019-01-03T00:41:44.410Z,102377.20
2019-01-03T00:44:36.822Z,102377.64
2019-01-03T00:47:19.624Z,102382.92
2019-01-03T00:50:21.106Z,102389.97
2019-01-03T00:53:18.668Z,102386.42
2019-01-03T00:56:06.692Z,102378.06
2019-01-03T00:58:54.404Z,102391.72
2019-01-03T01:01:58.888Z,102403.61
2019-01-03T01:05:03.437Z,102405.38
2019-01-03T01:07:55.658Z,102408.42
2019-01-03T01:10:36.057Z,102403.11
2019-01-03T01:13:24.670Z,102407.53
2019-01-03T01:16:29.268Z,102414.13
2019-01-03T01:19:27.518Z,102427.77
2019-01-03T01:22:34.947Z,102423.31
2019-01-03T01:25:23.948Z,102425.94
2019-01-03T01:28:26.130Z,102431.66
2019-01-03T01:31:15.869Z,102436.06
2019-01-03T01:34:03.943Z,102430.34
2019-01-03T01:36:52.361Z,102436.94
2019-01-03T01:39:44.405Z,102444.42
2019-01-03T01:42:27.185Z,102453.22
2019-01-03T01:45:19.507Z,102452.33
2019-01-03T01:48:08.922Z,102453.20
2019-01-03T01:50:58.826Z,102448.80
2019-01-03T01:53:57.192Z,102452.28
2019-01-03T01:56:49.310Z,102460.66
2019-01-03T01:59:34.911Z,102461.13
2019-01-03T02:02:22.921Z,102464.63
2019-01-03T02:05:20.819Z,102457.62
2019-01-03T02:08:08.553Z,102456.31
2019-01-03T02:10:58.740Z,102467.75
2019-01-03T02:13:46.601Z,102462.05
2019-01-03T02:16:34.913Z,102464.28
2019-01-03T02:19:36.042Z,102459.41
2019-01-03T02:22:37.616Z,102472.22
2019-01-03T02:25:36.484Z,102474.44
2019-01-03T02:28:32.125Z,102463.89
2019-01-03T02:31:29.332Z,102477.11
2019-01-03T02:34:17.426Z,102483.75
2019-01-03T02:37:05.160Z,102479.34
2019-01-03T02:39:52.999Z,102487.67
2019-01-03T02:42:54.273Z,102484.16
2019-01-03T02:45:37.513Z,102488.11
2019-01-03T02:48:25.346Z,102487.23
2019-01-03T02:51:17.948Z,102490.76
2019-01-03T02:54:05.748Z,102490.75
2019-01-03T02:57:04.268Z,102496.00
2019-01-03T02:59:52.376Z,102503.45
2019-01-03T03:02:47.931Z,102497.67
2019-01-03T03:05:28.766Z,102498.97
2019-01-03T03:08:13.470Z,102488.84
2019-01-03T03:11:21.991Z,102498.08
2019-01-03T03:14:23.063Z,102497.64
2019-01-03T03:17:18.313Z,102494.11
2019-01-03T03:20:07.800Z,102496.73
2019-01-03T03:23:00.598Z,102510.78
2019-01-03T03:25:48.691Z,102513.44
2019-01-03T03:28:36.661Z,102509.42
2019-01-03T03:31:29.481Z,102507.27
2019-01-03T03:34:17.569Z,102500.17
2019-01-03T03:37:07.199Z,102508.53
2019-01-03T03:40:00.464Z,102512.92
2019-01-03T03:43:05.085Z,102509.81
2019-01-03T03:45:52.989Z,102506.28
2019-01-03T03:48:52.231Z,102511.97
2019-01-03T03:51:56.417Z,102509.31
2019-01-03T03:54:51.085Z,102522.06
2019-01-03T03:57:43.198Z,102519.34
2019-01-03T04:00:56.706Z,102522.91
2019-01-03T04:03:49.305Z,102529.39
2019-01-03T04:06:42.416Z,102538.62
2019-01-03T04:09:25.394Z,102533.31
2019-01-03T04:12:07.133Z,102538.59
2019-01-03T04:14:54.947Z,102542.15
2019-01-03T04:17:50.372Z,102544.36
2019-01-03T04:20:46.446Z,102550.55
2019-01-03T04:23:35.063Z,102550.12
2019-01-03T04:26:23.246Z,102562.06
2019-01-03T04:29:18.414Z,102558.55
2019-01-03T04:32:19.754Z,102563.38
2019-01-03T04:34:57.569Z,102562.08
2019-01-03T04:37:49.714Z,102571.77
2019-01-03T04:40:47.879Z,102567.83
2019-01-03T04:43:35.832Z,102575.33
2019-01-03T04:46:33.652Z,102573.55
2019-01-03T04:49:25.514Z,102580.14
2019-01-03T04:52:13.946Z,102577.04
2019-01-03T04:55:02.818Z,102584.39
2019-01-03T04:57:51.910Z,102587.43
2019-01-03T05:00:39.840Z,102582.05
2019-01-03T05:03:37.864Z,102580.72
2019-01-03T05:06:25.938Z,102587.73
2019-01-03T05:09:10.987Z,102584.11
2019-01-03T05:12:00.153Z,102593.77
2019-01-03T05:14:49.398Z,102600.33
2019-01-03T05:17:37.606Z,102602.05
2019-01-03T05:20:39.025Z,102608.19
2019-01-03T05:23:40.255Z,102616.05
2019-01-03T05:26:38.577Z,102623.05
2019-01-03T05:29:43.010Z,102613.80
2019-01-03T05:32:40.103Z,102615.97
2019-01-03T05:35:27.774Z,102622.98
2019-01-03T05:38:14.363Z,102629.08
2019-01-03T05:41:09.711Z,102629.03
2019-01-03T05:44:08.205Z,102632.92
2019-01-03T05:46:56.231Z,102627.12
2019-01-03T05:50:04.237Z,102636.15
2019-01-03T05:52:56.443Z,102640.93
2019-01-03T05:55:44.465Z,102643.94
2019-01-03T05:58:32.315Z,102636.87
2019-01-03T06:01:20.975Z,102640.33
2019-01-03T06:04:08.959Z,102635.55
2019-01-03T06:06:58.055Z,102636.00
2019-01-03T06:09:52.621Z,102645.19
2019-01-03T06:12:57.188Z,102653.13
2019-01-03T06:15:50.071Z,102656.67
2019-01-03T06:18:45.310Z,102654.98
2019-01-03T06:21:33.261Z,102659.81
2019-01-03T06:24:25.960Z,102667.72
2019-01-03T06:27:23.878Z,102671.22
2019-01-03T06:30:12.511Z,102669.45
2019-01-03T06:33:04.420Z,102678.70
2019-01-03T06:36:09.162Z,102678.61
2019-01-03T06:39:10.205Z,102673.77
2019-01-03T06:41:57.938Z,102679.94
2019-01-03T06:44:45.853Z,102684.72
2019-01-03T06:47:37.856Z,102683.89
2019-01-03T06:50:25.850Z,102682.67
2019-01-03T06:53:22.476Z,102684.57
2019-01-03T06:56:10.380Z,102685.98
2019-01-03T06:58:58.519Z,102692.15
2019-01-03T07:01:46.403Z,102696.84
2019-01-03T07:04:50.983Z,102695.41
2019-01-03T07:07:44.375Z,102701.02
2019-01-03T07:10:51.946Z,102703.16
2019-01-03T07:13:54.437Z,102711.02
2019-01-03T07:16:43.894Z,102710.05
2019-01-03T07:19:31.206Z,102704.23
2019-01-03T07:22:19.285Z,102714.22
2019-01-03T07:25:07.307Z,102719.48
2019-01-03T07:27:51.521Z,102721.12
2019-01-03T07:30:43.695Z,102725.84
2019-01-03T07:33:38.981Z,102729.38
2019-01-03T07:36:38.042Z,102738.50
2019-01-03T07:39:45.352Z,102741.02
2019-01-03T07:42:33.287Z,102745.03
2019-01-03T07:45:22.393Z,102753.60
2019-01-03T07:48:11.513Z,102755.63
2019-01-03T07:50:59.639Z,102762.70
2019-01-03T07:53:58.380Z,102767.97
2019-01-03T07:56:46.720Z,102777.48
2019-01-03T07:59:43.210Z,102779.14
2019-01-03T08:02:44.330Z,102787.95
2019-01-03T08:05:36.190Z,102793.28
2019-01-03T08:08:37.924Z,102796.75
2019-01-03T08:11:25.572Z,102811.56
2019-01-03T08:14:13.338Z,102803.78
2019-01-03T08:17:11.414Z,102813.90
2019-01-03T08:20:00.517Z,102808.64
2019-01-03T08:22:48.650Z,102810.97
2019-01-03T08:25:52.903Z,102807.86
2019-01-03T08:28:34.090Z,102813.92
2019-01-03T08:31:19.284Z,102813.23
2019-01-03T08:34:22.321Z,102823.02
2019-01-03T08:37:11.627Z,102832.45
2019-01-03T08:40:01.882Z,102825.14
2019-01-03T08:42:54.133Z,102829.23
2019-01-03T08:45:42.165Z,102827.57
2019-01-03T08:48:48.510Z,102832.48
2019-01-03T08:51:43.102Z,102833.00
2019-01-03T08:54:37.353Z,102828.69
2019-01-03T08:57:34.097Z,102834.44
2019-01-03T09:00:27.241Z,102838.02
2019-01-03T09:03:20.751Z,102839.00
2019-01-03T09:06:09.535Z,102839.49
2019-01-03T09:08:56.994Z,102837.85
2019-01-03T09:11:49.050Z,102844.48
2019-01-03T09:14:41.080Z,102848.45
2019-01-03T09:17:42.367Z,102845.06
2019-01-03T09:20:30.201Z,102859.50
2019-01-03T09:23:31.465Z,102855.84
2019-01-03T09:26:26.631Z,102862.38
2019-01-03T09:29:09.225Z,102861.00
2019-01-03T09:32:10.359Z,102862.77
2019-01-03T09:34:58.746Z,102857.11
2019-01-03T09:37:47.024Z,102863.38
2019-01-03T09:40:48.255Z,102864.34
2019-01-03T09:43:49.537Z,102859.02
2019-01-03T09:46:19.784Z,102858.23
2019-01-03T09:48:49.890Z,102853.39
2019-01-03T09:51:20.045Z,102856.44
2019-01-03T09:53:50.154Z,102846.41
2019-01-03T09:56:20.742Z,102848.62
2019-01-03T09:58:50.873Z,102846.50
2019-01-03T10:01:21.020Z,102842.17
2019-01-03T10:03:51.119Z,102846.21
2019-01-03T10:06:21.520Z,102848.44
2019-01-03T10:08:51.764Z,102844.84
2019-01-03T10:11:21.904Z,102839.60
2019-01-03T10:13:52.009Z,102839.26
2019-01-03T10:16:22.141Z,102839.32
2019-01-03T10:18:52.262Z,102841.16
2019-01-03T10:21:22.520Z,102846.02
2019-01-03T10:23:52.757Z,102846.45
2019-01-03T10:26:22.889Z,102850.02
2019-01-03T10:28:53.095Z,102848.75
2019-01-03T10:31:23.234Z,102842.24
2019-01-03T10:33:56.022Z,102843.05
2019-01-03T10:36:27.487Z,102843.17
2019-01-03T10:38:57.783Z,102842.28
2019-01-03T10:41:28.276Z,102846.25
2019-01-03T10:43:58.402Z,102841.50
2019-01-03T10:46:28.557Z,102846.31
2019-01-03T10:48:58.650Z,102836.28
2019-01-03T10:51:28.787Z,102832.74
2019-01-03T10:53:58.898Z,102829.69
2019-01-03T10:56:29.190Z,102827.00
2019-01-03T10:58:59.297Z,102832.09
2019-01-03T11:01:29.471Z,102833.48
2019-01-03T11:03:59.566Z,102837.95
2019-01-03T11:06:29.860Z,102834.09
2019-01-03T11:08:59.980Z,102838.42
2019-01-03T11:11:30.112Z,102834.22
2019-01-03T11:14:00.217Z,102829.48
2019-01-03T11:16:30.394Z,102828.12
2019-01-03T11:19:00.494Z,102824.61
2019-01-03T11:21:30.633Z,102819.02
2019-01-03T11:24:00.741Z,102824.34
2019-01-03T11:26:30.888Z,102819.15
2019-01-03T11:29:01.106Z,102821.84
2019-01-03T11:31:31.242Z,102816.16
2019-01-03T11:34:01.778Z,102811.37
2019-01-03T11:36:32.222Z,102804.67
2019-01-03T11:39:02.362Z,102795.69
2019-01-03T11:41:33.895Z,102792.69
2019-01-03T11:44:04.012Z,102794.09
2019-01-03T11:46:34.141Z,102784.88
2019-01-03T11:49:04.249Z,102781.77
2019-01-03T11:51:34.701Z,102782.27
2019-01-03T11:54:04.815Z,102782.78
2019-01-03T11:56:34.995Z,102781.84
2019-01-03T11:59:05.106Z,102776.61
2019-01-03T12:01:35.617Z,102778.44
2019-01-03T12:04:05.729Z,102778.13
2019-01-03T12:06:36.318Z,102768.05
2019-01-03T12:09:07.191Z,102766.34
2019-01-03T12:11:37.386Z,102778.69
2019-01-03T12:14:07.504Z,102793.69
2019-01-03T12:16:37.633Z,102787.53
2019-01-03T12:19:07.741Z,102792.81
2019-01-03T12:21:38.325Z,102791.98
2019-01-03T12:24:08.428Z,102795.09
2019-01-03T12:26:38.545Z,102787.52
2019-01-03T12:29:08.637Z,102787.00
2019-01-03T12:31:38.783Z,102784.86
2019-01-03T12:34:08.904Z,102785.28
2019-01-03T12:36:39.041Z,102794.05
2019-01-03T12:39:09.143Z,102793.64
2019-01-03T12:41:39.291Z,102791.02
2019-01-03T12:44:09.407Z,102787.97
2019-01-03T12:46:39.535Z,102790.13
2019-01-03T12:49:09.660Z,102793.17
2019-01-03T12:51:39.881Z,102791.05
2019-01-03T12:54:10.003Z,102785.84
2019-01-03T12:56:40.216Z,102777.52
2019-01-03T12:59:10.369Z,102778.91
2019-01-03T13:01:40.507Z,102788.23
2019-01-03T13:04:10.598Z,102789.15
2019-01-03T13:06:40.927Z,102797.52
2019-01-03T13:09:17.477Z,102795.36
2019-01-03T13:11:48.379Z,102801.10
2019-01-03T13:14:18.482Z,102795.84
2019-01-03T13:16:48.970Z,102794.09
2019-01-03T13:19:19.072Z,102782.23
2019-01-03T13:21:50.177Z,102784.89
2019-01-03T13:24:20.293Z,102778.28
2019-01-03T13:26:50.417Z,102774.31
2019-01-03T13:29:20.513Z,102763.30
2019-01-03T13:31:50.645Z,102761.53
2019-01-03T13:34:20.741Z,102758.87
2019-01-03T13:36:50.869Z,102745.59
2019-01-03T13:39:20.981Z,102740.29
2019-01-03T13:41:51.120Z,102735.88
2019-01-03T13:44:21.224Z,102740.26
2019-01-03T13:46:51.730Z,102738.48
2019-01-03T13:49:21.847Z,102736.72
2019-01-03T13:51:51.990Z,102737.59
2019-01-03T13:54:22.103Z,102737.14
2019-01-03T13:56:52.299Z,102730.52
2019-01-03T13:59:22.440Z,102733.56
2019-01-03T14:01:52.569Z,102728.26
2019-01-03T14:04:22.690Z,102722.95
2019-01-03T14:06:52.824Z,102715.01
2019-01-03T14:09:23.135Z,102718.95
2019-01-03T14:11:53.257Z,102718.94
2019-01-03T14:14:23.371Z,102711.87
2019-01-03T14:16:53.515Z,102719.79
2019-01-03T14:19:23.624Z,102724.61
2019-01-03T14:21:53.753Z,102725.05
2019-01-03T14:24:23.864Z,102728.52
2019-01-03T14:26:53.993Z,102726.32
2019-01-03T14:29:24.110Z,102728.52
2019-01-03T14:31:54.249Z,102718.37
2019-01-03T14:34:24.352Z,102717.48
2019-01-03T14:36:55.949Z,102732.89
2019-01-03T14:39:26.454Z,102736.86
2019-01-03T14:41:56.618Z,102739.94
2019-01-03T14:44:26.718Z,102741.70
2019-01-03T14:46:56.862Z,102743.88
2019-01-03T14:49:26.968Z,102741.69
2019-01-03T14:51:57.114Z,102738.19
2019-01-03T14:54:27.250Z,102731.59
2019-01-03T14:56:57.428Z,102732.48
2019-01-03T14:59:27.535Z,102728.52
2019-01-03T15:01:57.667Z,102737.39
2019-01-03T15:04:27.910Z,102737.86
2019-01-03T15:06:58.393Z,102747.12
2019-01-03T15:09:29.424Z,102744.50
2019-01-03T15:11:59.876Z,102744.53
2019-01-03T15:14:30.176Z,102742.34
2019-01-03T15:17:00.301Z,102740.16
2019-01-03T15:19:30.423Z,102756.50
2019-01-03T15:22:00.554Z,102759.63
2019-01-03T15:24:30.656Z,102760.52
2019-01-03T15:27:00.781Z,102766.70
2019-01-03T15:29:30.898Z,102765.39
2019-01-03T15:32:01.022Z,102765.84
2019-01-03T15:34:31.132Z,102774.67
2019-01-03T15:37:01.304Z,102772.04
2019-01-03T15:39:32.484Z,102757.11
2019-01-03T15:42:02.639Z,102757.57
2019-01-03T15:44:32.826Z,102751.83
2019-01-03T15:47:03.012Z,102743.45
2019-01-03T15:49:33.255Z,102732.86
2019-01-03T15:52:05.258Z,102725.77
2019-01-03T15:54:35.392Z,102721.35
2019-01-03T15:57:05.602Z,102723.99
2019-01-03T15:59:35.754Z,102718.26
2019-01-03T16:02:05.874Z,102709.00
2019-01-03T16:04:35.981Z,102713.86
2019-01-03T16:07:06.131Z,102716.48
2019-01-03T16:09:36.282Z,102713.41
2019-01-03T16:12:06.525Z,102701.95
2019-01-03T16:14:36.629Z,102700.19
2019-01-03T16:17:06.777Z,102695.79
2019-01-03T16:19:37.221Z,102686.08
2019-01-03T16:22:07.353Z,102682.99
2019-01-03T16:24:37.461Z,102677.72
2019-01-03T16:27:07.614Z,102692.25
2019-01-03T16:29:37.734Z,102690.48
2019-01-03T16:32:07.868Z,102691.37
2019-01-03T16:34:37.981Z,102695.78
2019-01-03T16:37:08.392Z,102684.33
2019-01-03T16:39:39.570Z,102684.34
2019-01-03T16:42:09.709Z,102673.36
2019-01-03T16:44:39.815Z,102671.56
2019-01-03T16:47:09.964Z,102664.98
2019-01-03T16:49:40.402Z,102658.38
2019-01-03T16:52:10.809Z,102656.18
2019-01-03T16:54:41.348Z,102653.98
2019-01-03T16:57:11.553Z,102646.91
2019-01-03T16:59:41.699Z,102644.27
2019-01-03T17:02:11.930Z,102644.27
2019-01-03T17:04:42.049Z,102636.78
2019-01-03T17:07:12.202Z,102634.58
2019-01-03T17:09:42.338Z,102628.41
2019-01-03T17:12:12.790Z,102623.13
2019-01-03T17:14:42.910Z,102618.72
2019-01-03T17:17:13.057Z,102622.23
2019-01-03T17:19:43.228Z,102616.52
2019-01-03T17:22:13.372Z,102610.78
2019-01-03T17:24:43.488Z,102615.64
2019-01-03T17:27:13.606Z,102611.23
2019-01-03T17:29:43.721Z,102608.17
2019-01-03T17:32:13.853Z,102605.96
2019-01-03T17:34:43.964Z,102602.42
2019-01-03T17:37:14.102Z,102604.62
2019-01-03T17:39:44.260Z,102595.36
2019-01-03T17:42:14.504Z,102597.12
2019-01-03T17:44:44.640Z,102588.77
2019-01-03T17:47:14.761Z,102591.41
2019-01-03T17:49:44.936Z,102579.93
2019-01-03T17:52:15.130Z,102577.27
2019-01-03T17:54:45.274Z,102587.41
2019-01-03T17:57:15.455Z,102584.77
2019-01-03T17:59:45.573Z,102581.69
2019-01-03T18:02:16.015Z,102579.92
2019-01-03T18:04:46.137Z,102565.38
2019-01-03T18:07:16.289Z,102559.22
2019-01-03T18:09:46.491Z,102557.43
2019-01-03T18:12:16.662Z,102553.05
2019-01-03T18:14:46.825Z,102546.41
2019-01-03T18:17:17.295Z,102542.88
2019-01-03T18:19:47.753Z,102533.62
2019-01-03T18:22:17.966Z,102530.98
2019-01-03T18:24:49.273Z,102522.17
2019-01-03T18:27:19.831Z,102512.48
2019-01-03T18:29:50.023Z,102518.64
2019-01-03T18:32:20.161Z,102512.03
2019-01-03T18:34:50.269Z,102515.56
2019-01-03T18:37:20.502Z,102513.80
2019-01-03T18:39:50.623Z,102508.50
2019-01-03T18:42:20.871Z,102499.69
2019-01-03T18:44:51.069Z,102486.91
2019-01-03T18:47:21.382Z,102479.41
2019-01-03T18:49:51.583Z,102475.02
2019-01-03T18:52:21.758Z,102475.45
2019-01-03T18:54:51.994Z,102465.73
2019-01-03T18:57:22.325Z,102452.97
2019-01-03T18:59:52.518Z,102457.83
2019-01-03T19:02:23.044Z,102454.71
2019-01-03T19:04:53.183Z,102446.34
2019-01-03T19:07:23.393Z,102437.98
2019-01-03T19:09:53.728Z,102426.97
2019-01-03T19:12:23.896Z,102431.38
2019-01-03T19:14:54.046Z,102427.86
2019-01-03T19:17:24.204Z,102430.05
2019-01-03T19:19:54.336Z,102433.57
2019-01-03T19:22:24.673Z,102422.97
2019-01-03T19:24:55.918Z,102436.65
2019-01-03T19:27:26.169Z,102426.52
2019-01-03T19:29:56.286Z,102426.52
2019-01-03T19:32:26.499Z,102421.64
2019-01-03T19:34:56.673Z,102420.32
2019-01-03T19:37:27.370Z,102417.25
2019-01-03T19:39:58.560Z,102412.84
2019-01-03T19:42:28.736Z,102412.39
2019-01-03T19:44:58.887Z,102409.73
2019-01-03T19:47:29.067Z,102402.69
2019-01-03T19:49:59.177Z,102386.81
2019-01-03T19:52:30.615Z,102376.67
2019-01-03T19:55:00.965Z,102370.09
2019-01-03T19:57:31.591Z,102368.32
2019-01-03T20:00:01.738Z,102356.00
2019-01-03T20:02:33.175Z,102351.58
2019-01-03T20:05:03.345Z,102346.72
2019-01-03T20:07:33.510Z,102351.56
2019-01-03T20:10:03.619Z,102329.09
2019-01-03T20:12:35.227Z,102321.14
2019-01-03T20:15:07.697Z,102322.91
2019-01-03T20:17:37.875Z,102321.13
2019-01-03T20:20:08.849Z,102314.52
2019-01-03T20:22:39.267Z,102315.81
2019-01-03T20:25:10.283Z,102313.60
2019-01-03T20:27:40.521Z,102311.84
2019-01-03T20:30:12.751Z,102304.33
2019-01-03T20:32:43.033Z,102295.05
2019-01-03T20:35:13.264Z,102285.78
2019-01-03T20:37:43.909Z,102283.55
2019-01-03T20:40:14.630Z,102279.11
2019-01-03T20:42:45.099Z,102263.20
2019-01-03T20:45:15.436Z,102254.81
2019-01-03T20:47:47.215Z,102256.56
2019-01-03T20:50:17.588Z,102252.14
2019-01-03T20:52:47.767Z,102252.12
2019-01-03T20:55:17.952Z,102250.80
2019-01-03T20:57:49.665Z,102238.50
2019-01-03T21:00:19.841Z,102227.48
2019-01-03T21:02:50.981Z,102222.25
2019-01-03T21:05:21.183Z,102219.66
2019-01-03T21:07:53.226Z,102229.42
2019-01-03T21:10:23.365Z,102223.64
2019-01-03T21:12:53.516Z,102217.03
2019-01-03T21:15:23.608Z,102216.14
2019-01-03T21:17:53.889Z,102201.16
2019-01-03T21:20:23.990Z,102201.20
2019-01-03T21:22:54.119Z,102195.91
2019-01-03T21:25:24.229Z,102187.08
2019-01-03T21:27:54.418Z,102180.93
2019-01-03T21:30:24.632Z,102180.94
2019-01-03T21:32:54.754Z,102182.70
2019-01-03T21:35:24.859Z,102176.48
2019-01-03T21:37:55.000Z,102170.33
2019-01-03T21:40:25.189Z,102165.02
2019-01-03T21:42:55.314Z,102174.24
2019-01-03T21:45:25.417Z,102158.84
2019-01-03T21:47:55.562Z,102160.55
2019-01-03T21:50:25.672Z,102160.09
2019-01-03T21:52:55.808Z,102156.96
2019-01-03T21:55:25.978Z,102145.08
2019-01-03T21:57:57.555Z,102138.84
2019-01-03T22:00:27.646Z,102136.19
2019-01-03T22:02:57.774Z,102133.94
2019-01-03T22:05:27.914Z,102135.23
2019-01-03T22:07:58.090Z,102121.11
2019-01-03T22:10:28.150Z,102116.64
2019-01-03T22:12:58.351Z,102113.55
2019-01-03T22:15:28.448Z,102100.27
2019-01-03T22:17:58.572Z,102079.48
2019-01-03T22:20:28.792Z,102080.34
2019-01-03T22:22:58.933Z,102076.77
2019-01-03T22:25:29.111Z,102065.72
2019-01-03T22:27:59.286Z,102045.39
2019-01-03T22:30:29.485Z,102037.41
2019-01-03T22:33:00.193Z,102034.80
2019-01-03T22:35:30.485Z,102035.23
2019-01-03T22:38:00.640Z,102029.52
2019-01-03T22:40:30.755Z,102027.69
2019-01-03T22:43:00.911Z,102024.05
2019-01-03T22:45:31.002Z,102027.05
2019-01-03T22:48:01.149Z,102029.27
2019-01-03T22:50:31.251Z,102031.92
2019-01-03T22:53:01.382Z,102022.10
2019-01-03T22:55:31.570Z,102021.59
2019-01-03T22:58:02.202Z,102013.47
2019-01-03T23:00:40.040Z,102004.05
2019-01-03T23:03:10.521Z,101992.42
2019-01-03T23:05:40.709Z,101991.83
2019-01-03T23:08:10.836Z,101987.28
2019-01-03T23:10:40.933Z,101996.52
2019-01-03T23:13:11.061Z,101988.18
2019-01-03T23:15:41.184Z,101992.26
2019-01-03T23:18:11.309Z,101988.95
2019-01-03T23:20:41.400Z,101978.31
2019-01-03T23:23:11.530Z,101981.36
2019-01-03T23:25:42.713Z,101989.29
2019-01-03T23:28:12.840Z,101984.46
2019-01-03T23:30:42.934Z,101969.05
2019-01-03T23:33:13.382Z,101972.58
2019-01-03T23:35:43.515Z,101971.25
2019-01-03T23:38:13.798Z,101963.64
2019-01-03T23:40:43.898Z,101963.14
2019-01-03T23:43:14.045Z,101955.26
2019-01-03T23:45:44.155Z,101956.42
2019-01-03T23:48:14.280Z,101953.27
2019-01-03T23:50:44.422Z,101950.11
2019-01-03T23:53:14.521Z,101944.03
2019-01-03T23:55:51.036Z,101947.84
2019-01-03T23:58:22.121Z,101951.03
